createdAt,value
2019-03-05T00:01:32.167Z,4.10
2019-03-05T00:04:01.585Z,4.10
2019-03-05T00:06:32.693Z,4.00
2019-03-05T00:09:02.170Z,4.10
2019-03-05T00:11:33.479Z,4.00
2019-03-05T00:14:02.963Z,3.90
2019-03-05T00:16:33.667Z,3.90
2019-03-05T00:19:03.063Z,3.80
2019-03-05T00:21:33.773Z,3.80
2019-03-05T00:24:39.606Z,3.80
2019-03-05T00:27:09.123Z,3.80
2019-03-05T00:29:47.317Z,3.80
2019-03-05T00:32:16.824Z,3.90
2019-03-05T00:34:58.308Z,3.90
2019-03-05T00:37:32.287Z,3.90
2019-03-05T00:40:14.044Z,4.00
2019-03-05T00:43:04.796Z,4.00
2019-03-05T00:45:50.797Z,4.00
2019-03-05T00:48:56.910Z,4.00
2019-03-05T00:51:29.574Z,3.90
2019-03-05T00:54:23.710Z,4.00
2019-03-05T00:57:26.391Z,4.10
2019-03-05T01:00:07.703Z,4.10
2019-03-05T01:02:44.722Z,4.10
2019-03-05T01:05:29.471Z,4.20
2019-03-05T01:07:58.911Z,4.20
2019-03-05T01:10:29.655Z,4.20
2019-03-05T01:12:59.096Z,4.20
2019-03-05T01:15:28.511Z,4.20
2019-03-05T01:17:58.037Z,4.30
2019-03-05T01:20:28.907Z,4.40
2019-03-05T01:22:58.424Z,4.20
2019-03-05T01:25:35.665Z,4.20
2019-03-05T01:28:05.174Z,4.20
2019-03-05T01:30:56.561Z,4.20
2019-03-05T01:33:27.712Z,4.20
2019-03-05T01:36:04.555Z,4.20
2019-03-05T01:38:35.699Z,4.20
2019-03-05T01:41:06.752Z,4.10
2019-03-05T01:43:36.263Z,4.20
2019-03-05T01:46:07.214Z,4.20
2019-03-05T01:48:36.727Z,4.20
2019-03-05T01:51:07.604Z,4.20
2019-03-05T01:53:37.118Z,4.20
2019-03-05T01:56:06.595Z,4.20
2019-03-05T01:58:37.580Z,4.20
2019-03-05T02:01:07.086Z,4.20
2019-03-05T02:03:36.561Z,4.20
2019-03-05T02:06:07.267Z,4.20
2019-03-05T02:08:36.748Z,4.20
2019-03-05T02:11:07.629Z,4.20
2019-03-05T02:13:37.118Z,4.20
2019-03-05T02:16:07.930Z,4.20
2019-03-05T02:18:37.402Z,4.20
2019-03-05T02:21:06.910Z,4.10
2019-03-05T02:23:39.652Z,4.20
2019-03-05T02:26:34.389Z,4.20
2019-03-05T02:29:29.702Z,4.20
2019-03-05T02:32:29.450Z,4.20
2019-03-05T02:35:07.746Z,4.20
2019-03-05T02:37:41.885Z,4.10
2019-03-05T02:40:31.199Z,4.20
2019-03-05T02:43:06.426Z,4.20
2019-03-05T02:45:47.482Z,4.10
2019-03-05T02:48:24.595Z,4.10
2019-03-05T02:51:03.258Z,4.10
2019-03-05T02:53:35.991Z,4.10
2019-03-05T02:56:27.070Z,4.10
2019-03-05T02:58:55.644Z,4.10
2019-03-05T03:01:44.107Z,4.10
2019-03-05T03:04:15.224Z,4.00
2019-03-05T03:06:44.662Z,4.00
2019-03-05T03:09:32.271Z,4.00
2019-03-05T03:12:03.191Z,4.00
2019-03-05T03:14:32.653Z,4.00
2019-03-05T03:17:03.464Z,4.00
2019-03-05T03:19:32.934Z,4.00
2019-03-05T03:22:03.649Z,4.10
2019-03-05T03:24:33.130Z,4.00
2019-03-05T03:27:02.721Z,4.00
2019-03-05T03:29:32.202Z,3.90
2019-03-05T03:32:03.021Z,3.90
2019-03-05T03:34:32.490Z,4.00
2019-03-05T03:37:02.000Z,4.00
2019-03-05T03:39:31.474Z,3.90
2019-03-05T03:42:02.482Z,3.80
2019-03-05T03:44:31.885Z,3.90
2019-03-05T03:47:02.653Z,3.90
2019-03-05T03:49:32.062Z,3.80
2019-03-05T03:52:02.973Z,3.80
2019-03-05T03:54:32.374Z,3.70
2019-03-05T03:57:03.083Z,3.60
2019-03-05T03:59:32.562Z,3.60
2019-03-05T04:02:03.366Z,3.60
2019-03-05T04:04:32.844Z,3.60
2019-03-05T04:07:02.304Z,3.50
2019-03-05T04:09:31.717Z,3.50
2019-03-05T04:12:02.417Z,3.40
2019-03-05T04:14:31.927Z,3.50
2019-03-05T04:17:01.329Z,3.40
2019-03-05T04:19:32.023Z,3.40
2019-03-05T04:22:01.407Z,3.40
2019-03-05T04:24:30.906Z,3.40
2019-03-05T04:27:01.693Z,3.30
2019-03-05T04:29:31.201Z,3.40
2019-03-05T04:32:00.608Z,3.30
2019-03-05T04:34:30.111Z,3.40
2019-03-05T04:37:00.789Z,3.40
2019-03-05T04:39:30.291Z,3.40
2019-03-05T04:41:59.762Z,3.30
2019-03-05T04:44:30.843Z,3.30
2019-03-05T04:47:00.243Z,3.20
2019-03-05T04:49:31.331Z,3.20
2019-03-05T04:52:06.586Z,3.30
2019-03-05T04:54:36.095Z,3.40
2019-03-05T04:57:06.375Z,3.30
2019-03-05T04:59:35.886Z,3.30
2019-03-05T05:02:06.455Z,3.50
2019-03-05T05:04:35.968Z,3.50
2019-03-05T05:07:06.648Z,3.50
2019-03-05T05:09:37.936Z,3.60
2019-03-05T05:12:08.449Z,3.60
2019-03-05T05:14:37.887Z,3.60
2019-03-05T05:17:07.304Z,3.50
2019-03-05T05:19:36.821Z,3.60
2019-03-05T05:22:06.291Z,3.60
2019-03-05T05:24:35.735Z,3.60
2019-03-05T05:27:06.413Z,3.60
2019-03-05T05:29:35.858Z,3.60
2019-03-05T05:32:05.276Z,3.60
2019-03-05T05:34:34.703Z,3.60
2019-03-05T05:37:05.489Z,3.60
2019-03-05T05:40:11.516Z,3.60
2019-03-05T05:42:42.204Z,3.60
2019-03-05T05:45:14.956Z,3.50
2019-03-05T05:47:45.726Z,3.50
2019-03-05T05:50:15.168Z,3.50
2019-03-05T05:52:45.903Z,3.40
2019-03-05T05:55:15.347Z,3.50
2019-03-05T05:57:46.022Z,3.50
2019-03-05T06:00:17.080Z,3.50
2019-03-05T06:02:47.851Z,3.60
2019-03-05T06:05:17.290Z,3.50
2019-03-05T06:07:48.000Z,3.50
2019-03-05T06:10:17.483Z,3.50
2019-03-05T06:12:48.094Z,3.40
2019-03-05T06:15:17.496Z,3.30
2019-03-05T06:17:48.104Z,3.30
2019-03-05T06:20:17.772Z,3.30
2019-03-05T06:22:48.471Z,3.30
2019-03-05T06:25:17.881Z,3.20
2019-03-05T06:27:48.798Z,3.30
2019-03-05T06:30:30.412Z,3.30
2019-03-05T06:32:59.838Z,3.30
2019-03-05T06:35:29.252Z,3.40
2019-03-05T06:37:58.687Z,3.60
2019-03-05T06:40:31.211Z,3.60
2019-03-05T06:43:00.662Z,3.80
2019-03-05T06:45:30.070Z,3.80
2019-03-05T06:47:59.511Z,3.90
2019-03-05T06:50:29.294Z,3.90
2019-03-05T06:52:58.727Z,4.00
2019-03-05T06:55:29.625Z,4.10
2019-03-05T06:57:59.135Z,4.10
2019-03-05T07:00:41.105Z,4.20
2019-03-05T07:03:10.614Z,4.30
2019-03-05T07:06:17.535Z,4.40
2019-03-05T07:08:54.195Z,4.60
2019-03-05T07:11:38.563Z,4.90
2019-03-05T07:14:27.546Z,4.90
2019-03-05T07:17:22.648Z,5.00
2019-03-05T07:19:58.447Z,5.10
2019-03-05T07:22:33.896Z,5.10
2019-03-05T07:25:03.309Z,5.30
2019-03-05T07:27:34.072Z,5.40
2019-03-05T07:30:09.513Z,5.70
2019-03-05T07:32:40.511Z,5.80
2019-03-05T07:35:13.562Z,6.30
2019-03-05T07:37:44.363Z,6.50
2019-03-05T07:40:13.764Z,7.00
2019-03-05T07:42:44.488Z,7.30
2019-03-05T07:45:14.304Z,7.40
2019-03-05T07:47:45.015Z,7.10
2019-03-05T07:50:14.431Z,7.00
2019-03-05T07:52:45.248Z,6.60
2019-03-05T07:55:15.483Z,6.50
2019-03-05T07:57:46.216Z,6.10
2019-03-05T08:00:18.473Z,5.90
2019-03-05T08:02:49.188Z,5.90
2019-03-05T08:05:18.670Z,5.80
2019-03-05T08:07:49.378Z,5.70
2019-03-05T08:10:21.676Z,5.70
2019-03-05T08:13:16.462Z,5.80
2019-03-05T08:16:13.184Z,6.00
2019-03-05T08:18:42.789Z,6.10
2019-03-05T08:21:12.261Z,6.50
2019-03-05T08:23:41.771Z,7.00
2019-03-05T08:26:11.175Z,7.20
2019-03-05T08:28:40.684Z,7.10
2019-03-05T08:31:10.153Z,6.80
2019-03-05T08:33:39.660Z,6.90
2019-03-05T08:36:09.124Z,6.80
2019-03-05T08:38:38.563Z,6.70
2019-03-05T08:41:09.229Z,6.60
2019-03-05T08:43:38.736Z,6.40
2019-03-05T08:46:08.275Z,6.00
2019-03-05T08:48:37.776Z,6.00
2019-03-05T08:51:08.478Z,6.00
2019-03-05T08:53:49.023Z,6.00
2019-03-05T08:56:10.379Z,6.00
2019-03-05T08:58:39.780Z,6.00
2019-03-05T09:01:10.486Z,6.00
2019-03-05T09:03:39.963Z,5.90
2019-03-05T09:06:09.461Z,6.00
2019-03-05T09:08:38.932Z,5.90
2019-03-05T09:11:09.643Z,6.00
2019-03-05T09:13:39.182Z,6.00
2019-03-05T09:16:09.986Z,6.00
2019-03-05T09:18:39.455Z,6.00
2019-03-05T09:21:08.967Z,6.00
2019-03-05T09:23:38.437Z,6.10
2019-03-05T09:26:09.247Z,6.10
2019-03-05T09:28:38.707Z,6.40
2019-03-05T09:31:08.206Z,6.50
2019-03-05T09:33:38.475Z,6.60
2019-03-05T09:36:09.281Z,7.20
2019-03-05T09:38:39.147Z,7.30
2019-03-05T09:41:09.850Z,8.40
2019-03-05T09:43:39.320Z,8.80
2019-03-05T09:46:10.019Z,8.20
2019-03-05T09:48:40.975Z,7.90
2019-03-05T09:51:11.681Z,7.50
2019-03-05T09:53:41.153Z,7.60
2019-03-05T09:56:11.967Z,7.90
2019-03-05T09:58:41.448Z,8.30
2019-03-05T10:01:12.491Z,8.80
2019-03-05T10:03:41.959Z,9.00
2019-03-05T10:06:12.879Z,8.70
2019-03-05T10:08:42.338Z,8.80
2019-03-05T10:11:13.044Z,9.50
2019-03-05T10:13:42.554Z,10.10
2019-03-05T10:16:13.478Z,9.50
2019-03-05T10:18:42.976Z,9.30
2019-03-05T10:21:12.450Z,9.60
2019-03-05T10:23:41.944Z,9.80
2019-03-05T10:26:12.692Z,9.50
2019-03-05T10:28:42.263Z,9.40
2019-03-05T10:31:12.934Z,10.00
2019-03-05T10:33:42.452Z,10.10
2019-03-05T10:36:13.423Z,10.90
2019-03-05T10:38:43.002Z,10.40
2019-03-05T10:41:12.480Z,10.20
2019-03-05T10:43:43.672Z,9.10
2019-03-05T10:46:14.530Z,8.50
2019-03-05T10:48:44.115Z,8.60
2019-03-05T10:51:13.587Z,8.30
2019-03-05T10:53:43.164Z,8.40
2019-03-05T10:56:14.102Z,8.10
2019-03-05T10:58:43.607Z,8.10
2019-03-05T11:01:13.158Z,8.20
2019-03-05T11:03:42.736Z,8.30
2019-03-05T11:06:12.139Z,8.30
2019-03-05T11:08:42.343Z,8.50
2019-03-05T11:11:14.072Z,8.80
2019-03-05T11:13:43.719Z,8.40
2019-03-05T11:16:14.396Z,8.50
2019-03-05T11:18:43.894Z,8.70
2019-03-05T11:21:13.364Z,8.80
2019-03-05T11:23:42.866Z,8.60
2019-03-05T11:26:13.537Z,8.50
2019-03-05T11:28:43.046Z,8.30
2019-03-05T11:31:13.934Z,8.40
2019-03-05T11:33:43.443Z,8.50
2019-03-05T11:36:12.915Z,8.70
2019-03-05T11:38:42.418Z,9.00
2019-03-05T11:41:11.887Z,9.40
2019-03-05T11:43:41.791Z,10.30
2019-03-05T11:46:11.811Z,10.40
2019-03-05T11:48:41.396Z,10.30
2019-03-05T11:51:10.800Z,10.50
2019-03-05T11:53:40.288Z,10.00
2019-03-05T11:56:11.013Z,9.60
2019-03-05T11:58:40.458Z,9.10
2019-03-05T12:01:14.191Z,9.00
2019-03-05T12:03:43.601Z,9.20
2019-03-05T12:06:14.402Z,8.90
2019-03-05T12:08:43.874Z,8.80
2019-03-05T12:11:13.371Z,8.80
2019-03-05T12:13:42.839Z,8.50
2019-03-05T12:16:13.553Z,8.30
2019-03-05T12:18:43.015Z,8.00
2019-03-05T12:21:12.536Z,8.00
2019-03-05T12:23:46.732Z,8.00
2019-03-05T12:26:14.648Z,8.10
2019-03-05T12:28:44.118Z,7.90
2019-03-05T12:31:14.831Z,8.00
2019-03-05T12:33:44.300Z,7.80
2019-03-05T12:36:13.809Z,7.60
2019-03-05T12:38:43.280Z,7.50
2019-03-05T12:41:14.080Z,7.30
2019-03-05T12:43:43.549Z,7.30
2019-03-05T12:46:13.063Z,7.10
2019-03-05T12:48:42.636Z,7.10
2019-03-05T12:51:13.534Z,7.10
2019-03-05T12:53:43.010Z,7.00
2019-03-05T12:56:23.484Z,7.20
2019-03-05T12:58:45.148Z,7.10
2019-03-05T13:01:16.235Z,7.00
2019-03-05T13:03:46.387Z,6.90
2019-03-05T13:06:16.460Z,7.10
2019-03-05T13:08:45.986Z,6.90
2019-03-05T13:11:16.887Z,6.80
2019-03-05T13:13:47.475Z,6.70
2019-03-05T13:16:18.717Z,6.60
2019-03-05T13:18:48.121Z,6.40
2019-03-05T13:21:18.451Z,6.20
2019-03-05T13:23:48.029Z,6.20
2019-03-05T13:26:18.943Z,6.30
2019-03-05T13:28:48.411Z,6.00
2019-03-05T13:31:17.847Z,6.10
2019-03-05T13:33:47.333Z,6.00
2019-03-05T13:36:18.246Z,6.00
2019-03-05T13:38:47.724Z,6.00
2019-03-05T13:41:17.134Z,6.00
2019-03-05T13:43:46.666Z,6.00
2019-03-05T13:46:17.433Z,6.00
2019-03-05T13:48:58.656Z,6.00
2019-03-05T13:51:30.383Z,6.10
2019-03-05T13:54:28.154Z,6.10
2019-03-05T13:57:23.799Z,6.10
2019-03-05T13:59:53.193Z,6.10
2019-03-05T14:02:28.087Z,6.00
2019-03-05T14:05:15.745Z,5.90
2019-03-05T14:07:58.041Z,5.80
2019-03-05T14:10:26.609Z,6.00
2019-03-05T14:12:56.049Z,5.90
2019-03-05T14:15:27.008Z,5.80
2019-03-05T14:17:56.498Z,5.80
2019-03-05T14:20:32.161Z,5.70
2019-03-05T14:22:58.412Z,5.70
2019-03-05T14:25:29.091Z,5.80
2019-03-05T14:27:58.581Z,5.80
2019-03-05T14:30:28.003Z,5.80
2019-03-05T14:32:57.522Z,5.70
2019-03-05T14:35:28.329Z,5.70
2019-03-05T14:37:57.769Z,5.70
2019-03-05T14:40:29.674Z,5.60
2019-03-05T14:42:59.149Z,5.60
2019-03-05T14:45:30.740Z,5.60
2019-03-05T14:48:00.275Z,5.40
2019-03-05T14:50:31.521Z,5.30
2019-03-05T14:53:00.953Z,5.30
2019-03-05T14:55:30.454Z,5.30
2019-03-05T14:57:59.910Z,5.20
2019-03-05T15:00:29.436Z,5.20
2019-03-05T15:02:58.902Z,5.20
2019-03-05T15:05:28.393Z,5.10
2019-03-05T15:07:57.896Z,5.10
2019-03-05T15:10:27.400Z,5.20
2019-03-05T15:12:56.856Z,5.20
2019-03-05T15:15:30.199Z,5.20
2019-03-05T15:17:59.645Z,5.10
2019-03-05T15:20:29.176Z,5.10
2019-03-05T15:22:58.640Z,5.20
2019-03-05T15:25:29.224Z,5.20
2019-03-05T15:27:58.723Z,5.30
2019-03-05T15:30:29.030Z,5.30
2019-03-05T15:32:58.728Z,5.30
2019-03-05T15:35:29.430Z,5.20
2019-03-05T15:37:59.087Z,5.30
2019-03-05T15:40:28.657Z,5.30
2019-03-05T15:42:58.098Z,5.20
2019-03-05T15:45:28.931Z,5.30
2019-03-05T15:47:58.433Z,5.30
2019-03-05T15:50:30.087Z,5.20
2019-03-05T15:52:59.607Z,5.20
2019-03-05T15:55:30.776Z,5.20
2019-03-05T15:58:00.248Z,5.10
2019-03-05T16:00:34.439Z,5.20
2019-03-05T16:03:03.915Z,5.20
2019-03-05T16:05:33.415Z,5.20
2019-03-05T16:08:02.888Z,5.20
2019-03-05T16:10:33.993Z,5.20
2019-03-05T16:13:03.395Z,5.20
2019-03-05T16:15:33.933Z,5.20
2019-03-05T16:18:06.644Z,5.20
2019-03-05T16:20:35.994Z,5.20
2019-03-05T16:23:05.490Z,5.30
2019-03-05T16:25:34.963Z,5.30
2019-03-05T16:28:06.390Z,5.20
2019-03-05T16:30:50.503Z,5.30
2019-03-05T16:33:27.284Z,5.20
2019-03-05T16:35:58.598Z,5.20
2019-03-05T16:38:32.638Z,5.20
2019-03-05T16:41:17.019Z,5.20
2019-03-05T16:43:49.503Z,5.20
2019-03-05T16:46:21.808Z,5.20
2019-03-05T16:48:58.774Z,5.20
2019-03-05T16:51:38.718Z,5.20
2019-03-05T16:54:09.839Z,5.20
2019-03-05T16:56:41.009Z,5.20
2019-03-05T16:59:14.801Z,5.10
2019-03-05T17:01:48.863Z,5.10
2019-03-05T17:04:37.754Z,5.10
2019-03-05T17:07:24.894Z,5.10
2019-03-05T17:10:07.747Z,5.00
2019-03-05T17:12:38.754Z,5.00
2019-03-05T17:15:09.692Z,5.00
2019-03-05T17:17:40.503Z,5.00
2019-03-05T17:20:11.319Z,5.00
2019-03-05T17:22:42.033Z,5.00
2019-03-05T17:25:14.698Z,4.90
2019-03-05T17:27:45.505Z,4.90
2019-03-05T17:30:16.427Z,5.00
2019-03-05T17:32:47.203Z,4.90
2019-03-05T17:35:16.768Z,4.90
2019-03-05T17:37:48.001Z,4.90
2019-03-05T17:40:17.460Z,5.00
2019-03-05T17:42:50.146Z,5.00
2019-03-05T17:45:25.660Z,5.00
2019-03-05T17:47:55.362Z,5.00
2019-03-05T17:50:26.034Z,5.00
2019-03-05T17:52:55.540Z,5.00
2019-03-05T17:55:27.342Z,4.90
2019-03-05T17:57:56.983Z,5.00
2019-03-05T18:00:29.293Z,4.80
2019-03-05T18:02:58.794Z,4.80
2019-03-05T18:05:28.263Z,4.80
2019-03-05T18:07:57.704Z,4.70
2019-03-05T18:10:27.175Z,4.70
2019-03-05T18:12:56.648Z,4.60
2019-03-05T18:15:26.150Z,4.60
2019-03-05T18:17:55.637Z,4.60
2019-03-05T18:20:26.493Z,4.50
2019-03-05T18:22:55.971Z,4.50
2019-03-05T18:25:25.649Z,4.40
2019-03-05T18:27:55.069Z,4.40
2019-03-05T18:30:30.155Z,4.30
2019-03-05T18:32:59.758Z,4.30
2019-03-05T18:35:30.745Z,4.30
2019-03-05T18:38:00.210Z,4.20
2019-03-05T18:40:29.806Z,4.10
2019-03-05T18:42:59.344Z,4.00
2019-03-05T18:45:39.714Z,4.00
2019-03-05T18:48:09.199Z,3.90
2019-03-05T18:50:38.735Z,3.90
2019-03-05T18:53:08.203Z,3.90
2019-03-05T18:55:38.984Z,3.90
2019-03-05T18:58:08.387Z,3.80
2019-03-05T19:00:37.895Z,3.70
2019-03-05T19:03:10.162Z,3.70
2019-03-05T19:05:39.871Z,3.70
2019-03-05T19:08:09.419Z,3.60
2019-03-05T19:10:40.126Z,3.60
2019-03-05T19:13:09.690Z,3.60
2019-03-05T19:15:40.650Z,3.50
2019-03-05T19:18:10.310Z,3.50
2019-03-05T19:20:39.844Z,3.50
2019-03-05T19:23:09.522Z,3.60
2019-03-05T19:25:40.755Z,3.60
2019-03-05T19:28:13.650Z,3.70
2019-03-05T19:30:48.988Z,3.60
2019-03-05T19:33:18.638Z,3.50
2019-03-05T19:35:49.357Z,3.50
2019-03-05T19:38:19.046Z,3.40
2019-03-05T19:40:49.159Z,3.50
2019-03-05T19:43:18.783Z,3.50
2019-03-05T19:45:49.782Z,3.50
2019-03-05T19:48:19.401Z,3.30
2019-03-05T19:50:51.339Z,3.30
2019-03-05T19:53:20.889Z,3.30
2019-03-05T19:55:50.429Z,3.30
2019-03-05T19:58:20.000Z,3.30
2019-03-05T20:01:11.271Z,3.30
2019-03-05T20:03:40.790Z,3.30
2019-03-05T20:06:10.372Z,3.30
2019-03-05T20:08:40.532Z,3.30
2019-03-05T20:11:11.252Z,3.30
2019-03-05T20:13:40.927Z,3.30
2019-03-05T20:16:10.719Z,3.30
2019-03-05T20:18:40.195Z,3.30
2019-03-05T20:21:11.166Z,3.30
2019-03-05T20:23:40.666Z,3.30
2019-03-05T20:26:11.347Z,3.30
2019-03-05T20:28:40.872Z,3.40
2019-03-05T20:31:11.851Z,3.30
2019-03-05T20:33:41.291Z,3.40
2019-03-05T20:36:11.963Z,3.40
2019-03-05T20:38:41.476Z,3.40
2019-03-05T20:41:12.564Z,3.40
2019-03-05T20:43:42.071Z,3.40
2019-03-05T20:46:16.402Z,3.40
2019-03-05T20:48:46.011Z,3.40
2019-03-05T20:51:15.567Z,3.40
2019-03-05T20:53:45.071Z,3.40
2019-03-05T20:56:15.010Z,3.40
2019-03-05T20:58:44.459Z,3.30
2019-03-05T21:01:15.205Z,3.40
2019-03-05T21:03:44.635Z,3.30
2019-03-05T21:06:15.328Z,3.30
2019-03-05T21:08:44.768Z,3.30
2019-03-05T21:11:14.251Z,3.40
2019-03-05T21:13:43.758Z,3.40
2019-03-05T21:16:14.639Z,3.30
2019-03-05T21:18:44.155Z,3.40
2019-03-05T21:21:13.701Z,3.30
2019-03-05T21:23:43.205Z,3.40
2019-03-05T21:26:12.682Z,3.30
2019-03-05T21:28:42.191Z,3.40
2019-03-05T21:31:13.171Z,3.40
2019-03-05T21:33:42.683Z,3.30
2019-03-05T21:36:13.352Z,3.40
2019-03-05T21:38:42.857Z,3.40
2019-03-05T21:41:12.336Z,3.40
2019-03-05T21:43:41.856Z,3.40
2019-03-05T21:46:16.737Z,3.30
2019-03-05T21:48:46.192Z,3.30
2019-03-05T21:51:16.870Z,3.30
2019-03-05T21:53:46.387Z,3.30
2019-03-05T21:56:15.859Z,3.30
2019-03-05T21:58:45.382Z,3.30
2019-03-05T22:01:14.863Z,3.30
2019-03-05T22:03:44.383Z,3.30
2019-03-05T22:06:13.871Z,3.30
2019-03-05T22:08:43.386Z,3.30
2019-03-05T22:11:12.873Z,3.30
2019-03-05T22:13:42.396Z,3.30
2019-03-05T22:16:13.583Z,3.30
2019-03-05T22:18:43.103Z,3.20
2019-03-05T22:21:13.784Z,3.30
2019-03-05T22:23:43.309Z,3.30
2019-03-05T22:26:13.996Z,3.30
2019-03-05T22:28:43.512Z,3.30
2019-03-05T22:31:14.326Z,3.30
2019-03-05T22:33:43.810Z,3.20
2019-03-05T22:36:14.528Z,3.20
2019-03-05T22:38:44.024Z,3.20
2019-03-05T22:41:14.937Z,3.20
2019-03-05T22:43:44.422Z,3.20
2019-03-05T22:46:15.243Z,3.20
2019-03-05T22:48:44.662Z,3.20
2019-03-05T22:51:14.482Z,3.20
2019-03-05T22:53:43.959Z,3.20
2019-03-05T22:56:13.404Z,3.20
2019-03-05T22:58:42.889Z,3.20
2019-03-05T23:01:13.784Z,3.20
2019-03-05T23:03:44.813Z,3.30
2019-03-05T23:06:14.339Z,3.10
2019-03-05T23:08:43.822Z,3.10
2019-03-05T23:11:14.819Z,3.00
2019-03-05T23:13:44.775Z,3.10
2019-03-05T23:16:14.399Z,3.10
2019-03-05T23:18:43.874Z,3.00
2019-03-05T23:21:13.592Z,3.10
2019-03-05T23:23:43.058Z,3.10
2019-03-05T23:26:14.543Z,3.00
2019-03-05T23:28:44.022Z,3.10
2019-03-05T23:31:13.544Z,3.10
2019-03-05T23:33:43.023Z,3.10
2019-03-05T23:36:13.734Z,3.20
2019-03-05T23:38:43.214Z,3.00
2019-03-05T23:41:13.967Z,2.90
2019-03-05T23:43:44.983Z,2.90
2019-03-05T23:46:14.502Z,3.10
2019-03-05T23:48:44.275Z,3.20
2019-03-05T23:51:15.095Z,3.20
2019-03-05T23:53:44.507Z,3.20
2019-03-05T23:56:14.027Z,3.20
2019-03-05T23:58:43.515Z,3.20
